createdAt,value
2019-03-06T00:00:01.019Z,4.12
2019-03-06T00:02:27.713Z,4.12
2019-03-06T00:04:54.320Z,4.12
2019-03-06T00:07:20.951Z,4.13
2019-03-06T00:09:47.529Z,4.16
2019-03-06T00:12:14.216Z,4.17
2019-03-06T00:14:40.914Z,4.20
2019-03-06T00:17:07.516Z,4.20
2019-03-06T00:19:34.121Z,4.20
2019-03-06T00:22:00.703Z,4.20
2019-03-06T00:24:27.414Z,4.18
2019-03-06T00:26:54.008Z,4.20
2019-03-06T00:29:20.907Z,4.23
2019-03-06T00:31:47.599Z,4.25
2019-03-06T00:34:14.185Z,4.27
2019-03-06T00:36:40.797Z,4.28
2019-03-06T00:39:07.831Z,4.29
2019-03-06T00:41:36.886Z,4.28
2019-03-06T00:44:03.484Z,4.28
2019-03-06T00:46:30.174Z,4.28
2019-03-06T00:48:56.764Z,4.28
2019-03-06T00:51:23.473Z,4.27
2019-03-06T00:53:50.076Z,4.27
2019-03-06T00:56:16.714Z,4.27
2019-03-06T00:58:43.416Z,4.23
2019-03-06T01:01:10.157Z,4.18
2019-03-06T01:03:36.856Z,4.15
2019-03-06T01:06:03.549Z,4.10
2019-03-06T01:08:30.253Z,4.07
2019-03-06T01:10:56.841Z,4.05
2019-03-06T01:13:23.452Z,4.05
2019-03-06T01:15:50.063Z,4.01
2019-03-06T01:18:16.760Z,3.98
2019-03-06T01:20:43.368Z,3.97
2019-03-06T01:23:10.094Z,3.97
2019-03-06T01:25:36.777Z,3.99
2019-03-06T01:28:03.361Z,4.00
2019-03-06T01:30:29.969Z,3.98
2019-03-06T01:33:02.114Z,3.96
2019-03-06T01:35:54.170Z,3.97
2019-03-06T01:38:36.145Z,3.99
2019-03-06T01:41:07.745Z,4.00
2019-03-06T01:43:39.360Z,4.03
2019-03-06T01:46:05.977Z,4.04
2019-03-06T01:48:32.596Z,4.04
2019-03-06T01:50:59.282Z,4.04
2019-03-06T01:53:25.971Z,4.03
2019-03-06T01:55:52.565Z,4.02
2019-03-06T01:58:19.584Z,4.00
2019-03-06T02:00:46.275Z,3.98
2019-03-06T02:03:13.002Z,4.00
2019-03-06T02:05:39.593Z,3.95
2019-03-06T02:08:06.296Z,3.92
2019-03-06T02:10:32.881Z,3.91
2019-03-06T02:12:59.904Z,3.89
2019-03-06T02:15:26.592Z,3.84
2019-03-06T02:17:53.194Z,3.77
2019-03-06T02:20:19.780Z,3.70
2019-03-06T02:22:46.486Z,3.62
2019-03-06T02:25:16.015Z,3.56
2019-03-06T02:27:42.908Z,3.51
2019-03-06T02:30:10.933Z,3.44
2019-03-06T02:32:37.634Z,3.35
2019-03-06T02:35:04.432Z,3.29
2019-03-06T02:37:31.021Z,3.25
2019-03-06T02:39:57.618Z,3.19
2019-03-06T02:42:24.524Z,3.13
2019-03-06T02:44:51.199Z,3.06
2019-03-06T02:47:17.817Z,2.93
2019-03-06T02:49:44.521Z,2.82
2019-03-06T02:52:11.213Z,2.76
2019-03-06T02:54:37.811Z,2.74
2019-03-06T02:57:04.601Z,2.71
2019-03-06T02:59:43.041Z,2.69
2019-03-06T03:02:35.544Z,2.64
2019-03-06T03:05:10.841Z,2.59
2019-03-06T03:07:37.445Z,2.56
2019-03-06T03:10:04.518Z,2.51
2019-03-06T03:12:31.142Z,2.46
2019-03-06T03:14:57.733Z,2.43
2019-03-06T03:17:24.436Z,2.39
2019-03-06T03:19:51.124Z,2.31
2019-03-06T03:22:17.825Z,2.25
2019-03-06T03:24:44.521Z,2.22
2019-03-06T03:27:11.114Z,2.19
2019-03-06T03:29:37.820Z,2.16
2019-03-06T03:32:04.403Z,2.14
2019-03-06T03:34:31.345Z,2.12
2019-03-06T03:36:58.038Z,2.09
2019-03-06T03:39:24.741Z,2.08
2019-03-06T03:41:51.420Z,2.02
2019-03-06T03:44:18.111Z,1.95
2019-03-06T03:46:44.817Z,1.90
2019-03-06T03:49:11.505Z,1.89
2019-03-06T03:51:38.217Z,1.89
2019-03-06T03:54:04.901Z,1.89
2019-03-06T03:56:31.598Z,1.88
2019-03-06T03:58:58.189Z,1.88
2019-03-06T04:01:24.809Z,1.87
2019-03-06T04:03:51.493Z,1.87
2019-03-06T04:06:18.284Z,1.85
2019-03-06T04:08:45.013Z,1.84
2019-03-06T04:11:11.696Z,1.82
2019-03-06T04:13:38.404Z,1.80
2019-03-06T04:16:04.990Z,1.78
2019-03-06T04:18:31.683Z,1.77
2019-03-06T04:20:58.666Z,1.77
2019-03-06T04:23:25.408Z,1.74
2019-03-06T04:25:52.112Z,1.70
2019-03-06T04:28:18.793Z,1.68
2019-03-06T04:30:45.385Z,1.63
2019-03-06T04:33:11.999Z,1.62
2019-03-06T04:35:38.691Z,1.61
2019-03-06T04:38:05.324Z,1.62
2019-03-06T04:40:31.951Z,1.65
2019-03-06T04:42:58.666Z,1.68
2019-03-06T04:45:25.257Z,1.76
2019-03-06T04:47:51.852Z,1.80
2019-03-06T04:50:18.546Z,1.82
2019-03-06T04:52:45.142Z,1.83
2019-03-06T04:55:15.217Z,1.77
2019-03-06T04:57:41.907Z,1.74
2019-03-06T05:00:09.101Z,1.69
2019-03-06T05:02:35.695Z,1.69
2019-03-06T05:05:02.426Z,1.70
2019-03-06T05:07:29.017Z,1.72
2019-03-06T05:09:55.604Z,1.77
2019-03-06T05:12:22.204Z,1.84
2019-03-06T05:14:48.793Z,1.92
2019-03-06T05:17:30.876Z,1.97
2019-03-06T05:19:57.570Z,2.01
2019-03-06T05:22:24.280Z,2.07
2019-03-06T05:24:50.872Z,2.10
2019-03-06T05:27:17.472Z,2.12
2019-03-06T05:29:44.092Z,2.15
2019-03-06T05:32:36.354Z,2.17
2019-03-06T05:35:08.048Z,2.19
2019-03-06T05:37:51.334Z,2.25
2019-03-06T05:40:18.052Z,2.28
2019-03-06T05:42:44.649Z,2.30
2019-03-06T05:45:11.261Z,2.32
2019-03-06T05:47:37.860Z,2.34
2019-03-06T05:50:04.585Z,2.35
2019-03-06T05:52:31.478Z,2.38
2019-03-06T05:54:58.066Z,2.38
2019-03-06T05:57:24.671Z,2.38
2019-03-06T05:59:51.267Z,2.36
2019-03-06T06:02:17.863Z,2.32
2019-03-06T06:04:44.555Z,2.28
2019-03-06T06:07:11.347Z,2.22
2019-03-06T06:09:37.949Z,2.18
2019-03-06T06:12:04.678Z,2.32
2019-03-06T06:14:31.273Z,3.06
2019-03-06T06:16:57.986Z,3.57
2019-03-06T06:19:24.701Z,3.99
2019-03-06T06:22:09.198Z,4.24
2019-03-06T06:24:35.853Z,4.42
2019-03-06T06:27:02.555Z,4.69
2019-03-06T06:29:29.255Z,4.94
2019-03-06T06:31:55.987Z,5.13
2019-03-06T06:34:22.705Z,5.23
2019-03-06T06:36:49.306Z,5.26
2019-03-06T06:39:16.047Z,5.35
2019-03-06T06:41:42.745Z,5.18
2019-03-06T06:44:09.373Z,5.29
2019-03-06T06:46:35.976Z,5.27
2019-03-06T06:49:03.624Z,5.44
2019-03-06T06:51:51.665Z,5.69
2019-03-06T06:54:21.138Z,5.86
2019-03-06T06:57:04.872Z,5.88
2019-03-06T06:59:34.471Z,6.11
2019-03-06T07:02:36.951Z,6.45
2019-03-06T07:05:27.098Z,6.40
2019-03-06T07:08:01.042Z,6.51
2019-03-06T07:10:45.864Z,6.46
2019-03-06T07:13:17.866Z,6.55
2019-03-06T07:16:02.561Z,6.74
2019-03-06T07:18:34.796Z,6.87
2019-03-06T07:21:24.241Z,6.65
2019-03-06T07:24:13.358Z,6.12
2019-03-06T07:26:59.571Z,5.64
2019-03-06T07:29:46.344Z,5.24
2019-03-06T07:32:48.134Z,4.99
2019-03-06T07:35:51.264Z,4.80
2019-03-06T07:38:17.927Z,4.68
2019-03-06T07:41:21.905Z,4.62
2019-03-06T07:44:06.789Z,4.59
2019-03-06T07:47:05.300Z,4.53
2019-03-06T07:49:45.006Z,4.51
2019-03-06T07:52:33.624Z,4.53
2019-03-06T07:55:28.721Z,4.52
2019-03-06T07:58:30.005Z,4.68
2019-03-06T08:00:56.713Z,5.19
2019-03-06T08:03:29.286Z,5.43
2019-03-06T08:05:55.891Z,5.70
2019-03-06T08:08:22.597Z,5.87
2019-03-06T08:10:50.323Z,6.02
2019-03-06T08:13:23.769Z,6.13
2019-03-06T08:16:00.279Z,6.38
2019-03-06T08:18:44.918Z,6.57
2019-03-06T08:21:28.826Z,6.62
2019-03-06T08:24:04.518Z,6.53
2019-03-06T08:26:31.253Z,6.40
2019-03-06T08:28:57.949Z,6.36
2019-03-06T08:31:44.107Z,6.31
2019-03-06T08:34:10.795Z,6.16
2019-03-06T08:36:37.402Z,6.16
2019-03-06T08:39:07.709Z,6.14
2019-03-06T08:41:34.315Z,6.14
2019-03-06T08:44:00.934Z,6.14
2019-03-06T08:46:41.723Z,6.16
2019-03-06T08:49:27.941Z,6.16
2019-03-06T08:52:17.301Z,6.17
2019-03-06T08:55:11.000Z,6.25
2019-03-06T08:57:57.647Z,6.34
2019-03-06T09:00:44.157Z,6.37
2019-03-06T09:03:29.239Z,6.42
2019-03-06T09:06:15.464Z,6.49
2019-03-06T09:09:10.788Z,6.60
2019-03-06T09:11:52.674Z,6.77
2019-03-06T09:14:38.777Z,6.91
2019-03-06T09:17:27.658Z,7.05
2019-03-06T09:20:19.681Z,7.20
2019-03-06T09:23:08.941Z,7.32
2019-03-06T09:25:52.165Z,7.42
2019-03-06T09:28:50.700Z,7.58
2019-03-06T09:31:35.512Z,7.73
2019-03-06T09:34:12.580Z,7.86
2019-03-06T09:36:45.963Z,7.98
2019-03-06T09:39:52.231Z,8.05
2019-03-06T09:42:34.830Z,8.10
2019-03-06T09:45:24.718Z,8.16
2019-03-06T09:47:56.809Z,8.20
2019-03-06T09:50:28.562Z,8.31
2019-03-06T09:53:11.272Z,8.43
2019-03-06T09:55:59.306Z,8.55
2019-03-06T09:58:51.236Z,8.71
2019-03-06T10:01:37.033Z,8.76
2019-03-06T10:04:23.235Z,8.85
2019-03-06T10:07:16.088Z,8.94
2019-03-06T10:09:47.812Z,9.04
2019-03-06T10:12:27.579Z,9.14
2019-03-06T10:15:11.123Z,9.37
2019-03-06T10:17:55.251Z,9.64
2019-03-06T10:20:25.449Z,9.95
2019-03-06T10:22:51.262Z,10.29
2019-03-06T10:25:17.934Z,10.49
2019-03-06T10:27:44.968Z,10.59
2019-03-06T10:30:12.240Z,10.63
2019-03-06T10:32:39.342Z,10.63
2019-03-06T10:35:06.099Z,10.68
2019-03-06T10:37:32.835Z,10.72
2019-03-06T10:39:59.549Z,10.74
2019-03-06T10:42:26.254Z,10.88
2019-03-06T10:44:52.961Z,11.04
2019-03-06T10:47:19.661Z,11.23
2019-03-06T10:49:46.401Z,11.30
2019-03-06T10:52:13.091Z,11.30
2019-03-06T10:54:44.597Z,11.39
2019-03-06T10:57:08.623Z,11.62
2019-03-06T10:59:35.538Z,11.89
2019-03-06T11:02:02.270Z,12.19
2019-03-06T11:04:54.705Z,12.48
2019-03-06T11:07:21.440Z,12.69
2019-03-06T11:09:48.145Z,12.86
2019-03-06T11:12:14.902Z,12.97
2019-03-06T11:14:41.607Z,13.13
2019-03-06T11:17:08.320Z,13.32
2019-03-06T11:19:35.311Z,13.59
2019-03-06T11:22:02.013Z,13.75
2019-03-06T11:24:28.721Z,13.76
2019-03-06T11:26:55.423Z,13.78
2019-03-06T11:29:22.135Z,13.99
2019-03-06T11:31:48.843Z,14.20
2019-03-06T11:34:15.585Z,14.41
2019-03-06T11:36:42.280Z,14.61
2019-03-06T11:39:09.900Z,14.80
2019-03-06T11:41:37.098Z,14.86
2019-03-06T11:44:03.796Z,15.09
2019-03-06T11:46:30.484Z,15.25
2019-03-06T11:48:57.115Z,15.43
2019-03-06T11:51:23.936Z,15.52
2019-03-06T11:53:50.628Z,15.68
2019-03-06T11:56:17.328Z,15.66
2019-03-06T11:58:44.045Z,15.55
2019-03-06T12:01:13.271Z,15.43
2019-03-06T12:03:41.978Z,15.38
2019-03-06T12:06:08.500Z,15.31
2019-03-06T12:08:35.246Z,15.37
2019-03-06T12:11:01.987Z,15.46
2019-03-06T12:13:28.700Z,15.44
2019-03-06T12:15:55.404Z,15.38
2019-03-06T12:18:22.438Z,15.39
2019-03-06T12:20:49.131Z,15.39
2019-03-06T12:23:15.876Z,15.30
2019-03-06T12:25:42.571Z,15.27
2019-03-06T12:28:09.693Z,15.25
2019-03-06T12:30:36.718Z,15.33
2019-03-06T12:33:03.393Z,15.27
2019-03-06T12:35:30.405Z,15.14
2019-03-06T12:37:57.086Z,15.11
2019-03-06T12:40:23.814Z,15.11
2019-03-06T12:42:50.533Z,15.17
2019-03-06T12:45:17.258Z,15.35
2019-03-06T12:47:44.732Z,15.43
2019-03-06T12:50:13.465Z,15.51
2019-03-06T12:52:40.171Z,15.46
2019-03-06T12:55:07.521Z,15.27
2019-03-06T12:57:34.221Z,15.06
2019-03-06T13:00:00.918Z,14.87
2019-03-06T13:02:27.623Z,14.71
2019-03-06T13:04:54.332Z,14.62
2019-03-06T13:07:21.049Z,14.51
2019-03-06T13:09:47.869Z,14.39
2019-03-06T13:12:14.603Z,14.32
2019-03-06T13:14:41.335Z,14.20
2019-03-06T13:17:08.061Z,14.12
2019-03-06T13:19:34.759Z,14.09
2019-03-06T13:22:10.656Z,14.07
2019-03-06T13:24:29.910Z,14.02
2019-03-06T13:26:58.077Z,13.97
2019-03-06T13:29:25.904Z,13.95
2019-03-06T13:31:52.677Z,13.99
2019-03-06T13:34:38.813Z,14.06
2019-03-06T13:37:05.526Z,14.19
2019-03-06T13:39:32.645Z,14.37
2019-03-06T13:41:59.332Z,14.47
2019-03-06T13:44:26.061Z,14.53
2019-03-06T13:46:52.781Z,14.54
2019-03-06T13:49:19.496Z,14.54
2019-03-06T13:51:46.187Z,14.43
2019-03-06T13:54:12.901Z,14.36
2019-03-06T13:56:39.621Z,14.29
2019-03-06T13:59:14.737Z,14.23
2019-03-06T14:01:41.457Z,14.15
2019-03-06T14:04:08.216Z,14.05
2019-03-06T14:06:34.965Z,13.95
2019-03-06T14:09:01.672Z,13.88
2019-03-06T14:11:28.295Z,13.89
2019-03-06T14:13:55.027Z,13.95
2019-03-06T14:16:21.732Z,14.03
2019-03-06T14:18:48.474Z,14.09
2019-03-06T14:21:15.190Z,14.07
2019-03-06T14:23:41.900Z,14.03
2019-03-06T14:26:08.586Z,13.97
2019-03-06T14:28:35.316Z,13.93
2019-03-06T14:31:02.033Z,13.89
2019-03-06T14:33:29.076Z,13.89
2019-03-06T14:35:55.797Z,13.86
2019-03-06T14:38:22.496Z,13.84
2019-03-06T14:40:49.249Z,13.86
2019-03-06T14:43:15.980Z,13.86
2019-03-06T14:45:42.692Z,13.85
2019-03-06T14:48:09.410Z,13.90
2019-03-06T14:50:36.142Z,13.97
2019-03-06T14:53:03.456Z,14.04
2019-03-06T14:55:30.345Z,14.07
2019-03-06T14:57:57.058Z,14.07
2019-03-06T15:00:23.771Z,14.04
2019-03-06T15:02:50.510Z,14.02
2019-03-06T15:08:12.025Z,14.00
2019-03-06T15:10:42.860Z,13.99
2019-03-06T15:13:13.361Z,13.91
2019-03-06T15:15:40.351Z,13.84
2019-03-06T15:18:10.605Z,13.73
2019-03-06T15:20:42.287Z,13.64
2019-03-06T15:23:09.020Z,13.57
2019-03-06T15:25:35.750Z,13.48
2019-03-06T15:28:02.474Z,13.36
2019-03-06T15:30:29.197Z,13.28
2019-03-06T15:32:55.921Z,13.15
2019-03-06T15:35:22.662Z,13.04
2019-03-06T15:37:49.372Z,12.98
2019-03-06T15:45:44.295Z,12.75
2019-03-06T15:48:11.007Z,12.65
2019-03-06T15:50:37.725Z,12.58
2019-03-06T15:53:04.458Z,12.56
2019-03-06T15:58:26.007Z,12.65
2019-03-06T16:00:52.761Z,12.95
2019-03-06T16:03:19.482Z,13.20
2019-03-06T16:05:46.161Z,13.19
2019-03-06T16:08:12.882Z,13.08
2019-03-06T16:10:39.703Z,12.96
2019-03-06T16:13:06.411Z,12.84
2019-03-06T16:15:33.115Z,12.68
2019-03-06T16:18:00.056Z,12.62
2019-03-06T16:20:26.781Z,12.51
2019-03-06T16:22:53.500Z,12.35
2019-03-06T16:25:20.169Z,12.35
2019-03-06T16:27:46.888Z,12.46
2019-03-06T16:30:14.057Z,12.63
2019-03-06T16:32:40.805Z,12.74
2019-03-06T16:35:07.541Z,12.68
2019-03-06T16:37:34.230Z,12.48
2019-03-06T16:40:00.947Z,12.21
2019-03-06T16:42:27.655Z,11.94
2019-03-06T16:44:54.413Z,11.68
2019-03-06T16:47:32.768Z,11.43
2019-03-06T16:49:59.476Z,11.21
2019-03-06T16:52:26.215Z,11.03
2019-03-06T16:54:52.964Z,10.85
2019-03-06T16:57:19.707Z,10.65
2019-03-06T16:59:46.413Z,10.47
2019-03-06T17:02:21.390Z,10.29
2019-03-06T17:04:48.089Z,10.14
2019-03-06T17:07:14.823Z,10.00
2019-03-06T17:09:41.517Z,9.91
2019-03-06T17:12:08.238Z,9.82
2019-03-06T17:14:34.932Z,9.73
2019-03-06T17:17:09.736Z,9.65
2019-03-06T17:19:36.457Z,9.55
2019-03-06T17:22:03.167Z,9.45
2019-03-06T17:24:29.854Z,9.35
2019-03-06T17:26:56.560Z,9.25
2019-03-06T17:29:23.310Z,9.17
2019-03-06T17:31:50.038Z,9.10
2019-03-06T17:34:16.754Z,9.02
2019-03-06T17:36:43.462Z,8.98
2019-03-06T17:39:10.337Z,8.94
2019-03-06T17:41:37.062Z,8.90
2019-03-06T17:44:03.822Z,8.84
2019-03-06T17:46:30.502Z,8.79
2019-03-06T17:48:57.216Z,8.75
2019-03-06T17:51:35.422Z,8.70
2019-03-06T17:54:02.112Z,8.63
2019-03-06T17:56:28.837Z,8.58
2019-03-06T17:58:55.570Z,8.50
2019-03-06T18:01:22.300Z,8.44
2019-03-06T18:04:08.466Z,8.38
2019-03-06T18:06:35.158Z,8.28
2019-03-06T18:09:01.864Z,8.20
2019-03-06T18:11:28.584Z,8.13
2019-03-06T18:13:55.311Z,8.08
2019-03-06T18:16:22.034Z,8.04
2019-03-06T18:18:48.776Z,8.01
2019-03-06T18:21:15.488Z,7.97
2019-03-06T18:23:42.196Z,7.93
2019-03-06T18:26:08.913Z,7.88
2019-03-06T18:28:35.640Z,7.87
2019-03-06T18:31:02.350Z,7.85
2019-03-06T18:33:29.062Z,7.81
2019-03-06T18:35:55.773Z,7.99
2019-03-06T18:38:22.491Z,8.21
2019-03-06T18:40:49.235Z,8.32
2019-03-06T18:43:15.984Z,8.26
2019-03-06T18:45:42.712Z,8.11
2019-03-06T18:48:09.470Z,7.96
2019-03-06T18:50:36.218Z,7.82
2019-03-06T18:53:02.954Z,7.69
2019-03-06T18:55:29.664Z,7.55
2019-03-06T18:58:04.501Z,7.43
2019-03-06T19:00:31.223Z,7.33
2019-03-06T19:02:58.031Z,7.22
2019-03-06T19:05:27.918Z,7.12
2019-03-06T19:07:54.660Z,7.04
2019-03-06T19:10:21.402Z,6.95
2019-03-06T19:12:48.311Z,6.88
2019-03-06T19:15:15.886Z,6.83
2019-03-06T19:17:42.607Z,6.80
2019-03-06T19:20:09.359Z,6.75
2019-03-06T19:22:36.128Z,6.71
2019-03-06T19:25:02.873Z,6.67
2019-03-06T19:27:29.584Z,6.59
2019-03-06T19:29:56.343Z,6.52
2019-03-06T19:32:23.357Z,6.46
2019-03-06T19:34:50.189Z,6.39
2019-03-06T19:37:16.930Z,6.33
2019-03-06T19:39:43.677Z,6.28
2019-03-06T19:42:10.393Z,6.21
2019-03-06T19:44:37.136Z,6.14
2019-03-06T19:47:03.864Z,6.09
2019-03-06T19:49:30.594Z,6.06
2019-03-06T19:51:57.478Z,6.04
2019-03-06T19:54:24.226Z,6.02
2019-03-06T19:56:50.951Z,5.99
2019-03-06T19:59:17.680Z,6.35
2019-03-06T20:01:44.375Z,6.96
2019-03-06T20:04:11.143Z,7.41
2019-03-06T20:06:37.885Z,7.62
2019-03-06T20:09:18.409Z,7.41
2019-03-06T20:11:45.135Z,7.12
2019-03-06T20:14:11.911Z,6.79
2019-03-06T20:16:38.651Z,6.53
2019-03-06T20:19:05.419Z,6.32
2019-03-06T20:21:32.157Z,6.12
2019-03-06T20:23:58.895Z,5.97
2019-03-06T20:26:25.723Z,5.80
2019-03-06T20:28:52.447Z,5.66
2019-03-06T20:31:19.194Z,5.57
2019-03-06T20:33:45.903Z,5.50
2019-03-06T20:36:12.673Z,5.41
2019-03-06T20:38:39.401Z,5.36
2019-03-06T20:41:06.152Z,5.33
2019-03-06T20:43:32.897Z,5.28
2019-03-06T20:45:59.749Z,5.23
2019-03-06T20:48:26.484Z,5.18
2019-03-06T20:50:53.214Z,5.17
2019-03-06T20:53:19.932Z,5.17
2019-03-06T20:55:46.645Z,5.14
2019-03-06T20:58:13.400Z,5.14
2019-03-06T21:00:40.127Z,5.15
2019-03-06T21:03:06.841Z,5.16
2019-03-06T21:05:33.551Z,5.17
2019-03-06T21:08:00.281Z,5.16
2019-03-06T21:10:26.988Z,5.14
2019-03-06T21:13:02.194Z,5.08
2019-03-06T21:18:23.506Z,5.07
2019-03-06T21:20:50.241Z,5.05
2019-03-06T21:23:17.007Z,5.01
2019-03-06T21:25:43.765Z,4.98
2019-03-06T21:28:10.508Z,4.95
2019-03-06T21:30:38.306Z,4.92
2019-03-06T21:33:05.014Z,4.90
2019-03-06T21:35:31.750Z,4.94
2019-03-06T21:37:58.476Z,4.94
2019-03-06T21:40:25.224Z,4.94
2019-03-06T21:42:52.042Z,4.92
2019-03-06T21:45:18.800Z,4.89
2019-03-06T21:47:45.547Z,4.90
2019-03-06T21:50:12.305Z,4.88
2019-03-06T21:52:39.056Z,4.90
2019-03-06T21:55:06.712Z,4.88
2019-03-06T21:57:33.546Z,4.90
2019-03-06T22:00:10.346Z,4.92
2019-03-06T22:02:37.050Z,4.95
2019-03-06T22:05:03.869Z,4.96
2019-03-06T22:07:30.631Z,4.96
2019-03-06T22:09:57.342Z,4.93
2019-03-06T22:12:24.041Z,4.90
2019-03-06T22:14:50.739Z,4.88
2019-03-06T22:17:17.526Z,4.86
2019-03-06T22:19:44.262Z,4.86
2019-03-06T22:22:10.973Z,4.84
2019-03-06T22:24:37.674Z,4.84
2019-03-06T22:27:04.408Z,4.83
2019-03-06T22:29:31.100Z,4.80
2019-03-06T22:31:57.813Z,4.75
2019-03-06T22:34:24.828Z,4.71
2019-03-06T22:36:51.669Z,4.68
2019-03-06T22:39:18.366Z,4.59
2019-03-06T22:41:45.129Z,4.59
2019-03-06T22:44:11.848Z,4.59
2019-03-06T22:46:38.571Z,4.59
2019-03-06T22:49:05.279Z,4.62
2019-03-06T22:51:31.994Z,4.65
2019-03-06T22:53:58.789Z,4.68
2019-03-06T22:56:25.505Z,4.69
2019-03-06T22:58:52.210Z,4.72
2019-03-06T23:01:20.803Z,4.71
2019-03-06T23:03:47.503Z,4.75
2019-03-06T23:06:14.197Z,4.76
2019-03-06T23:08:40.816Z,4.77
2019-03-06T23:11:07.608Z,4.79
2019-03-06T23:13:34.361Z,4.80
2019-03-06T23:16:01.059Z,4.83
2019-03-06T23:18:27.769Z,4.83
2019-03-06T23:20:54.495Z,4.78
2019-03-06T23:23:21.193Z,4.76
2019-03-06T23:25:47.933Z,4.76
2019-03-06T23:28:15.801Z,4.74
2019-03-06T23:30:42.412Z,4.72
2019-03-06T23:33:09.113Z,4.74
2019-03-06T23:35:35.817Z,4.77
2019-03-06T23:38:02.419Z,4.83
2019-03-06T23:40:29.112Z,4.88
2019-03-06T23:42:55.748Z,4.96
2019-03-06T23:45:22.734Z,5.03
2019-03-06T23:47:49.461Z,5.10
2019-03-06T23:50:16.168Z,5.15
2019-03-06T23:53:03.932Z,5.20
2019-03-06T23:55:31.160Z,5.24
2019-03-06T23:57:57.880Z,5.27
